Time;durP1;ratioP1;P1;durP2;ratioP2;P2;SDS_P1;SDS_P2;PMS_P1;PMS_P2;Temp;Humidity;BMP_temperature;BMP_pressure;BME280_temperature;BME280_humidity;BME280_pressure;Samples;Min_cycle;Max_cycle;Signal;HPM_P1;HPM_P2
2021/06/06 00:01:49;;;;;;;10.82;6.53;;;22.00;57.50;;;;;;5057100;28;20380;-68
2021/06/06 00:04:18;;;;;;;10.27;6.88;;;22.00;57.50;;;;;;5057294;28;20032;-68
2021/06/06 00:06:44;;;;;;;10.68;6.63;;;22.00;57.70;;;;;;5057137;28;20523;-68
2021/06/06 00:09:15;;;;;;;9.60;6.63;;;22.00;57.60;;;;;;5056801;28;20040;-68
2021/06/06 00:11:53;;;;;;;10.27;6.40;;;22.00;57.60;;;;;;5057287;28;20032;-68
2021/06/06 00:14:24;;;;;;;10.88;7.10;;;22.00;57.70;;;;;;5056716;28;20027;-68
2021/06/06 00:16:52;;;;;;;10.05;6.93;;;22.00;57.60;;;;;;5056697;28;20021;-67
2021/06/06 00:19:20;;;;;;;10.15;6.88;;;22.00;57.60;;;;;;5056619;28;20079;-67
2021/06/06 00:21:47;;;;;;;10.45;7.00;;;22.00;57.50;;;;;;5056493;28;20037;-68
2021/06/06 00:24:15;;;;;;;8.65;6.57;;;22.00;57.70;;;;;;5056362;28;20052;-68
2021/06/06 00:26:41;;;;;;;11.68;7.22;;;22.00;57.70;;;;;;5056621;28;20094;-68
2021/06/06 00:29:06;;;;;;;11.10;7.00;;;21.90;57.70;;;;;;5057095;28;20400;-68
2021/06/06 00:31:32;;;;;;;10.38;6.60;;;21.90;57.70;;;;;;5061678;28;20034;-68
2021/06/06 00:33:58;;;;;;;10.02;6.28;;;22.00;57.70;;;;;;5061813;28;20024;-68
2021/06/06 00:36:23;;;;;;;9.55;6.68;;;22.00;57.70;;;;;;5057455;28;20381;-67
2021/06/06 00:38:50;;;;;;;10.45;6.93;;;21.90;57.80;;;;;;5055598;28;20500;-68
2021/06/06 00:41:18;;;;;;;10.55;7.18;;;22.00;57.70;;;;;;5056573;28;20033;-68
2021/06/06 00:43:45;;;;;;;9.02;6.38;;;21.90;57.90;;;;;;5056067;28;20045;-67
2021/06/06 00:46:11;;;;;;;11.00;7.07;;;21.90;57.80;;;;;;5056528;28;20077;-68
2021/06/06 00:48:37;;;;;;;10.02;6.75;;;21.90;57.90;;;;;;5056068;28;20033;-68
2021/06/06 00:51:25;;;;;;;10.68;6.90;;;21.90;57.90;;;;;;5056199;28;20548;-68
2021/06/06 00:54:14;;;;;;;9.30;6.03;;;21.90;57.80;;;;;;5056122;28;20534;-69
2021/06/06 00:56:42;;;;;;;10.63;6.75;;;21.90;57.90;;;;;;5056219;28;20090;-68
2021/06/06 00:59:09;;;;;;;10.20;7.05;;;21.80;57.80;;;;;;5056145;28;20105;-68
2021/06/06 01:01:34;;;;;;;11.15;7.35;;;21.80;57.90;;;;;;5056035;28;20384;-67
2021/06/06 01:04:02;;;;;;;11.23;7.57;;;21.80;57.80;;;;;;5055913;28;20021;-68
2021/06/06 01:06:42;;;;;;;11.02;7.13;;;21.80;58.00;;;;;;5054624;28;20025;-68
2021/06/06 01:09:08;;;;;;;10.30;7.03;;;21.80;58.00;;;;;;5055537;28;20025;-68
2021/06/06 01:12:00;;;;;;;10.05;7.00;;;21.80;57.90;;;;;;5055672;28;20044;-68
2021/06/06 01:14:41;;;;;;;10.88;7.35;;;21.80;58.00;;;;;;5055385;28;20480;-67
2021/06/06 01:17:16;;;;;;;10.38;7.00;;;21.80;57.90;;;;;;5055517;28;20056;-67
2021/06/06 01:20:08;;;;;;;11.02;6.38;;;21.80;57.90;;;;;;5055702;28;20485;-68
2021/06/06 01:22:46;;;;;;;10.57;6.70;;;21.80;57.90;;;;;;5055417;28;20049;-68
2021/06/06 01:25:18;;;;;;;10.18;7.13;;;21.80;57.80;;;;;;5055282;28;20385;-68
2021/06/06 01:27:50;;;;;;;9.90;7.07;;;21.70;58.00;;;;;;5055484;28;20036;-68
2021/06/06 01:30:21;;;;;;;9.45;6.68;;;21.80;58.00;;;;;;5055485;28;20113;-69
2021/06/06 01:33:07;;;;;;;10.70;7.03;;;21.80;58.00;;;;;;5055540;28;20032;-68
2021/06/06 01:35:38;;;;;;;9.43;6.53;;;21.70;58.00;;;;;;5055696;28;20047;-68
2021/06/06 01:38:13;;;;;;;9.98;6.88;;;21.80;57.90;;;;;;5061573;28;20361;-68
2021/06/06 01:40:41;;;;;;;9.65;6.95;;;21.70;58.00;;;;;;5056184;28;20028;-68
2021/06/06 01:43:16;;;;;;;9.73;6.60;;;21.70;58.10;;;;;;5055854;28;20131;-68
2021/06/06 01:45:54;;;;;;;10.27;7.28;;;21.70;58.00;;;;;;5058968;28;20025;-69
2021/06/06 01:48:20;;;;;;;10.30;7.75;;;21.70;57.90;;;;;;5058225;28;20460;-68
2021/06/06 01:50:49;;;;;;;11.27;7.28;;;21.70;57.90;;;;;;5054555;28;20021;-68
2021/06/06 01:53:17;;;;;;;9.93;6.97;;;21.70;58.00;;;;;;5055216;28;20057;-68
2021/06/06 01:55:46;;;;;;;11.07;6.85;;;21.70;58.00;;;;;;5055011;28;20025;-69
2021/06/06 01:58:13;;;;;;;11.30;7.18;;;21.70;58.10;;;;;;5054953;28;20027;-68
2021/06/06 02:00:48;;;;;;;9.40;6.47;;;21.70;57.90;;;;;;5054835;28;20083;-69
2021/06/06 02:03:14;;;;;;;9.57;7.05;;;21.70;58.00;;;;;;5055049;28;20021;-68
2021/06/06 02:05:41;;;;;;;10.73;6.65;;;21.70;58.00;;;;;;5054806;28;20087;-68
2021/06/06 02:08:10;;;;;;;10.15;7.00;;;21.70;57.90;;;;;;5054777;28;20131;-69
2021/06/06 02:10:42;;;;;;;11.13;6.95;;;21.70;57.90;;;;;;5054388;28;20021;-69
2021/06/06 02:13:17;;;;;;;10.45;7.40;;;21.70;57.90;;;;;;5054389;28;20059;-69
2021/06/06 02:15:45;;;;;;;10.85;7.32;;;21.70;58.00;;;;;;5054612;28;20116;-68
2021/06/06 02:18:11;;;;;;;10.77;7.03;;;21.70;57.90;;;;;;5054341;28;20094;-68
2021/06/06 02:20:43;;;;;;;9.93;7.05;;;21.70;58.00;;;;;;5054383;28;20476;-68
2021/06/06 02:23:11;;;;;;;10.98;7.03;;;21.70;57.90;;;;;;5054087;28;20353;-68
2021/06/06 02:25:38;;;;;;;10.35;6.82;;;21.60;58.00;;;;;;5054059;28;20056;-68
2021/06/06 02:28:21;;;;;;;9.30;6.22;;;21.70;58.00;;;;;;5054599;28;20028;-68
2021/06/06 02:31:08;;;;;;;11.07;7.47;;;21.70;57.90;;;;;;5054169;28;20055;-69
2021/06/06 02:33:38;;;;;;;11.88;7.00;;;21.70;58.00;;;;;;5053888;28;20029;-68
2021/06/06 02:36:07;;;;;;;11.57;7.07;;;21.70;58.00;;;;;;5054373;28;20025;-68
2021/06/06 02:38:52;;;;;;;9.68;6.60;;;21.60;57.90;;;;;;5054252;28;20035;-68
2021/06/06 02:41:33;;;;;;;10.02;6.90;;;21.70;57.90;;;;;;5054033;28;20033;-68
2021/06/06 02:44:09;;;;;;;11.43;7.00;;;21.60;58.00;;;;;;5053360;28;20115;-68
2021/06/06 02:46:37;;;;;;;10.00;6.47;;;21.60;58.00;;;;;;5053723;28;20311;-68
2021/06/06 02:49:11;;;;;;;8.82;6.43;;;21.60;58.00;;;;;;5053561;28;20036;-69
2021/06/06 02:51:42;;;;;;;10.05;7.00;;;21.60;58.00;;;;;;5063606;28;20029;-69
2021/06/06 02:54:23;;;;;;;10.60;6.85;;;21.60;58.00;;;;;;5061027;28;20025;-69
2021/06/06 02:56:53;;;;;;;11.48;7.47;;;21.60;58.00;;;;;;5054536;28;20027;-68
2021/06/06 02:59:28;;;;;;;10.13;7.10;;;21.60;58.00;;;;;;5054077;28;20100;-68
2021/06/06 03:01:59;;;;;;;10.40;6.88;;;21.60;58.10;;;;;;5053560;28;20041;-68
2021/06/06 03:04:29;;;;;;;10.98;6.78;;;21.60;58.10;;;;;;5053818;28;20036;-68
2021/06/06 03:07:03;;;;;;;10.95;7.30;;;21.60;58.00;;;;;;5053543;28;20127;-68
2021/06/06 03:09:29;;;;;;;11.18;7.50;;;21.60;58.00;;;;;;5053523;28;20025;-68
2021/06/06 03:11:59;;;;;;;9.73;6.90;;;21.60;57.90;;;;;;5053359;28;20060;-68
2021/06/06 03:14:28;;;;;;;9.55;6.43;;;21.60;58.00;;;;;;5053416;28;20075;-68
2021/06/06 03:17:08;;;;;;;9.73;7.00;;;21.60;58.00;;;;;;5053721;28;20032;-68
2021/06/06 03:19:38;;;;;;;10.50;7.38;;;21.60;58.00;;;;;;5053505;28;20087;-68
2021/06/06 03:22:08;;;;;;;10.27;6.70;;;21.50;58.00;;;;;;5053364;28;20041;-68
2021/06/06 03:24:42;;;;;;;9.60;6.63;;;21.60;58.00;;;;;;5053420;28;20393;-69
2021/06/06 03:27:09;;;;;;;9.43;6.20;;;21.50;58.00;;;;;;5053344;28;20021;-68
2021/06/06 03:29:59;;;;;;;8.95;6.25;;;21.50;57.90;;;;;;5053015;28;20028;-68
2021/06/06 03:32:29;;;;;;;10.35;6.57;;;21.60;58.00;;;;;;5050449;28;20549;-68
2021/06/06 03:34:55;;;;;;;10.32;6.72;;;21.50;58.10;;;;;;5055737;28;20037;-69
2021/06/06 03:37:21;;;;;;;9.60;6.60;;;21.50;58.00;;;;;;5053513;28;20100;-68
2021/06/06 03:39:46;;;;;;;9.98;6.50;;;21.50;58.00;;;;;;5054151;28;20025;-68
2021/06/06 03:42:13;;;;;;;12.85;7.50;;;21.50;58.00;;;;;;5052939;28;20037;-68
2021/06/06 03:44:38;;;;;;;9.60;6.45;;;21.50;58.00;;;;;;5052959;28;20048;-68
2021/06/06 03:47:04;;;;;;;9.23;6.20;;;21.50;58.00;;;;;;5053108;28;20021;-69
2021/06/06 03:49:29;;;;;;;9.52;6.65;;;21.50;58.00;;;;;;5052808;28;20036;-68
2021/06/06 03:51:55;;;;;;;11.10;7.95;;;21.50;58.00;;;;;;5052985;28;20028;-69
2021/06/06 03:54:21;;;;;;;10.65;6.95;;;21.50;58.10;;;;;;5053096;28;20029;-68
2021/06/06 03:56:49;;;;;;;10.63;7.13;;;21.50;58.00;;;;;;5052761;28;20473;-68
2021/06/06 03:59:15;;;;;;;9.50;6.35;;;21.50;58.00;;;;;;5053091;28;20028;-68
2021/06/06 04:01:42;;;;;;;9.48;6.90;;;21.50;58.00;;;;;;5053142;28;20069;-69
2021/06/06 04:04:08;;;;;;;9.35;6.13;;;21.50;58.00;;;;;;5053217;28;20022;-69
2021/06/06 04:06:33;;;;;;;10.65;6.28;;;21.50;58.00;;;;;;5055209;28;20079;-68
2021/06/06 04:09:01;;;;;;;8.57;6.30;;;21.50;58.00;;;;;;5055805;28;20017;-69
2021/06/06 04:11:27;;;;;;;9.40;7.07;;;21.50;58.00;;;;;;5054973;28;20033;-68
2021/06/06 04:13:52;;;;;;;9.48;5.97;;;21.50;58.00;;;;;;5052889;28;20029;-68
2021/06/06 04:16:19;;;;;;;8.30;5.70;;;21.50;58.00;;;;;;5057382;28;20033;-69
2021/06/06 04:18:44;;;;;;;9.10;6.40;;;21.50;58.00;;;;;;5054539;28;20025;-68
2021/06/06 04:21:30;;;;;;;9.60;6.65;;;21.50;58.00;;;;;;5053166;28;20044;-69
2021/06/06 04:23:56;;;;;;;11.80;6.80;;;21.50;58.00;;;;;;5052683;28;20422;-68
2021/06/06 04:26:22;;;;;;;10.10;6.18;;;21.50;58.00;;;;;;5052640;28;20158;-69
2021/06/06 04:28:47;;;;;;;8.98;6.30;;;21.50;58.00;;;;;;5052618;28;20021;-68
2021/06/06 04:31:14;;;;;;;9.73;6.60;;;21.50;58.00;;;;;;5052614;28;20037;-68
2021/06/06 04:33:40;;;;;;;10.30;6.78;;;21.50;58.00;;;;;;5052556;28;20025;-69
2021/06/06 04:36:06;;;;;;;9.13;6.20;;;21.50;58.10;;;;;;5052577;28;20029;-68
2021/06/06 04:38:33;;;;;;;8.90;6.30;;;21.50;58.00;;;;;;5052771;28;20251;-68
2021/06/06 04:41:03;;;;;;;9.02;6.45;;;21.50;58.00;;;;;;5054223;28;20070;-68
2021/06/06 04:43:29;;;;;;;9.02;6.30;;;21.50;58.00;;;;;;5056315;28;20052;-68
2021/06/06 04:45:55;;;;;;;10.25;6.35;;;21.50;58.00;;;;;;5056287;28;20119;-69
2021/06/06 04:48:26;;;;;;;9.20;6.85;;;21.50;58.00;;;;;;5056218;28;20025;-69
2021/06/06 04:50:53;;;;;;;9.85;6.90;;;21.50;58.00;;;;;;5056230;28;20028;-69
2021/06/06 04:53:19;;;;;;;9.90;5.93;;;21.50;58.00;;;;;;5056301;28;20056;-68
2021/06/06 04:55:46;;;;;;;10.00;6.13;;;21.50;58.00;;;;;;5056648;28;20504;-68
2021/06/06 04:58:14;;;;;;;9.30;6.18;;;21.50;58.00;;;;;;5056661;28;20017;-68
2021/06/06 05:00:41;;;;;;;9.85;6.50;;;21.50;58.00;;;;;;5059692;28;20029;-68
2021/06/06 05:03:08;;;;;;;11.07;6.22;;;21.50;58.00;;;;;;5057944;28;20048;-68
2021/06/06 05:05:34;;;;;;;8.73;6.25;;;21.50;58.00;;;;;;5055762;28;20032;-68
2021/06/06 05:08:01;;;;;;;8.93;5.95;;;21.50;58.00;;;;;;5055756;28;20465;-68
2021/06/06 05:10:29;;;;;;;9.43;7.05;;;21.50;58.00;;;;;;5054925;28;20020;-68
2021/06/06 05:12:54;;;;;;;8.90;5.97;;;21.50;58.00;;;;;;5055551;28;20079;-68
2021/06/06 05:15:21;;;;;;;10.13;6.63;;;21.50;58.00;;;;;;5055799;28;20029;-68
2021/06/06 05:17:47;;;;;;;9.95;6.60;;;21.40;58.00;;;;;;5055869;28;20486;-68
2021/06/06 05:20:15;;;;;;;9.45;6.35;;;21.50;58.10;;;;;;5054484;28;20028;-68
2021/06/06 05:22:41;;;;;;;9.52;6.30;;;21.50;58.00;;;;;;5055544;28;20477;-68
2021/06/06 05:25:07;;;;;;;9.10;6.00;;;21.50;58.00;;;;;;5055515;28;20078;-68
2021/06/06 05:27:33;;;;;;;10.43;6.35;;;21.50;58.00;;;;;;5055882;28;20123;-68
2021/06/06 05:29:59;;;;;;;10.35;5.85;;;21.40;58.10;;;;;;5058321;28;20060;-68
2021/06/06 05:32:24;;;;;;;9.68;6.45;;;21.50;58.00;;;;;;5059731;28;20029;-68
2021/06/06 05:34:50;;;;;;;9.80;6.32;;;21.40;58.00;;;;;;5055465;28;20495;-69
2021/06/06 05:37:16;;;;;;;9.82;6.55;;;21.50;58.00;;;;;;5055348;28;20039;-68
2021/06/06 05:39:42;;;;;;;9.90;6.10;;;21.50;58.00;;;;;;5054855;28;20023;-68
2021/06/06 05:42:09;;;;;;;9.77;5.97;;;21.50;58.00;;;;;;5055001;28;20395;-68
2021/06/06 05:44:34;;;;;;;10.20;6.45;;;21.40;58.00;;;;;;5055227;28;20451;-69
2021/06/06 05:47:01;;;;;;;9.23;6.20;;;21.40;58.10;;;;;;5055134;28;20025;-68
2021/06/06 05:49:26;;;;;;;9.73;6.03;;;21.50;58.00;;;;;;5055333;28;20033;-68
2021/06/06 05:51:52;;;;;;;8.55;5.60;;;21.40;58.00;;;;;;5054970;28;20033;-69
2021/06/06 05:54:18;;;;;;;9.32;6.28;;;21.50;58.00;;;;;;5055454;28;20117;-69
2021/06/06 05:56:44;;;;;;;7.95;5.35;;;21.40;58.10;;;;;;5057348;28;20029;-68
2021/06/06 05:59:10;;;;;;;9.38;6.15;;;21.40;58.00;;;;;;5064776;28;20086;-69
2021/06/06 06:01:35;;;;;;;8.20;6.05;;;21.40;58.00;;;;;;5061122;28;20037;-68
2021/06/06 06:04:01;;;;;;;9.23;6.30;;;21.40;58.00;;;;;;5055488;28;20074;-68
2021/06/06 06:06:27;;;;;;;9.18;5.72;;;21.40;58.00;;;;;;5054846;28;20021;-68
2021/06/06 06:08:53;;;;;;;8.38;5.60;;;21.50;58.00;;;;;;5053670;28;20021;-68
2021/06/06 06:11:20;;;;;;;8.93;5.60;;;21.50;58.00;;;;;;5054448;28;20530;-68
2021/06/06 06:13:47;;;;;;;9.05;5.88;;;21.50;58.00;;;;;;5054757;28;20040;-68
2021/06/06 06:16:16;;;;;;;9.57;6.30;;;21.50;58.00;;;;;;5053200;28;20616;-68
2021/06/06 06:18:42;;;;;;;9.45;5.80;;;21.50;58.00;;;;;;5055030;28;20094;-69
2021/06/06 06:21:11;;;;;;;8.23;5.80;;;21.40;57.90;;;;;;5055210;28;20469;-68
2021/06/06 06:23:37;;;;;;;9.93;6.75;;;21.40;58.00;;;;;;5055020;28;20102;-68
2021/06/06 06:26:02;;;;;;;9.10;5.82;;;21.50;57.90;;;;;;5055002;28;20647;-69
2021/06/06 06:28:28;;;;;;;8.85;6.03;;;21.40;58.00;;;;;;5055006;28;20075;-69
2021/06/06 06:30:54;;;;;;;9.15;6.05;;;21.50;57.90;;;;;;5055466;28;20024;-69
2021/06/06 06:33:19;;;;;;;9.57;5.88;;;21.40;58.00;;;;;;5055974;28;20025;-67
2021/06/06 06:35:45;;;;;;;8.45;5.72;;;21.40;58.00;;;;;;5055691;28;20461;-71
2021/06/06 06:38:10;;;;;;;8.40;5.57;;;21.50;58.00;;;;;;5064366;28;20017;-73
2021/06/06 06:40:37;;;;;;;10.43;6.68;;;21.40;57.90;;;;;;5064946;28;20031;-71
2021/06/06 06:43:04;;;;;;;9.23;6.03;;;21.40;58.00;;;;;;5065291;28;20565;-69
2021/06/06 06:45:33;;;;;;;9.68;5.95;;;21.40;57.90;;;;;;5065606;28;20021;-69
2021/06/06 06:48:08;;;;;;;9.10;5.85;;;21.40;57.90;;;;;;5067300;28;20080;-68
2021/06/06 06:50:35;;;;;;;9.55;6.13;;;21.50;57.90;;;;;;5065617;28;20025;-68
2021/06/06 06:53:01;;;;;;;8.82;5.93;;;21.50;57.90;;;;;;5065800;28;20100;-68
2021/06/06 06:55:27;;;;;;;9.65;6.22;;;21.40;57.90;;;;;;5064706;28;20021;-68
2021/06/06 06:57:55;;;;;;;10.23;5.82;;;21.40;57.90;;;;;;5061710;28;20025;-69
2021/06/06 07:00:30;;;;;;;8.50;5.82;;;21.40;57.90;;;;;;5053663;28;20029;-68
2021/06/06 07:02:55;;;;;;;9.82;5.88;;;21.40;57.80;;;;;;5062295;28;20097;-68
2021/06/06 07:05:21;;;;;;;9.55;6.28;;;21.50;57.90;;;;;;5056852;28;20040;-68
2021/06/06 07:07:47;;;;;;;9.13;5.82;;;21.50;57.90;;;;;;5055156;28;20483;-69
2021/06/06 07:10:18;;;;;;;8.95;5.82;;;21.40;57.90;;;;;;5060439;28;20021;-68
2021/06/06 07:12:44;;;;;;;8.80;6.03;;;21.50;57.90;;;;;;5055468;28;20024;-68
2021/06/06 07:15:12;;;;;;;8.38;5.40;;;21.40;57.80;;;;;;5070526;28;20029;-68
2021/06/06 07:17:38;;;;;;;8.15;5.20;;;21.50;57.80;;;;;;5065168;28;20033;-68
2021/06/06 07:20:07;;;;;;;8.50;5.72;;;21.40;57.80;;;;;;5064873;28;20029;-69
2021/06/06 07:22:33;;;;;;;9.48;5.70;;;21.50;57.80;;;;;;5057619;28;20580;-68
2021/06/06 07:24:59;;;;;;;8.75;5.65;;;21.40;57.80;;;;;;5055326;28;20021;-68
2021/06/06 07:27:26;;;;;;;8.57;6.03;;;21.40;57.90;;;;;;5058170;28;20078;-68
2021/06/06 07:29:53;;;;;;;9.13;5.63;;;21.40;57.80;;;;;;5052941;28;20473;-69
2021/06/06 07:32:21;;;;;;;9.10;5.97;;;21.50;57.80;;;;;;5052824;28;20488;-68
2021/06/06 07:34:47;;;;;;;8.40;5.78;;;21.50;57.80;;;;;;5051630;28;20516;-69
2021/06/06 07:37:13;;;;;;;8.82;6.13;;;21.40;57.80;;;;;;5052835;28;20032;-68
2021/06/06 07:39:40;;;;;;;9.00;5.70;;;21.50;57.80;;;;;;5052779;28;20025;-69
2021/06/06 07:42:08;;;;;;;7.78;5.35;;;21.50;57.80;;;;;;5052909;28;20065;-68
2021/06/06 07:44:35;;;;;;;8.82;5.97;;;21.40;57.80;;;;;;5051322;28;20049;-69
2021/06/06 07:47:01;;;;;;;8.80;6.00;;;21.50;57.80;;;;;;5052694;28;20041;-68
2021/06/06 07:49:27;;;;;;;8.93;6.00;;;21.40;57.80;;;;;;5051496;28;20100;-68
2021/06/06 07:51:53;;;;;;;8.43;5.88;;;21.40;57.80;;;;;;5052743;28;20060;-68
2021/06/06 07:54:18;;;;;;;8.80;5.95;;;21.50;57.80;;;;;;5052633;28;20021;-70
2021/06/06 07:56:44;;;;;;;10.75;6.13;;;21.50;57.80;;;;;;5052911;28;20024;-69
2021/06/06 07:59:11;;;;;;;8.73;5.60;;;21.40;57.80;;;;;;5052642;28;20096;-68
2021/06/06 08:01:37;;;;;;;8.85;5.72;;;21.50;57.80;;;;;;5051476;28;20040;-69
2021/06/06 08:04:02;;;;;;;9.05;5.40;;;21.50;57.80;;;;;;5052544;28;20025;-69
2021/06/06 08:06:28;;;;;;;7.90;5.20;;;21.40;57.80;;;;;;5052613;28;20059;-69
2021/06/06 08:08:54;;;;;;;9.55;5.93;;;21.50;57.80;;;;;;5052509;28;20025;-69
2021/06/06 08:11:19;;;;;;;9.30;5.93;;;21.50;57.70;;;;;;5052495;28;20045;-69
2021/06/06 08:13:46;;;;;;;11.35;6.40;;;21.50;57.70;;;;;;5052634;28;20102;-69
2021/06/06 08:16:11;;;;;;;8.98;5.55;;;21.50;57.60;;;;;;5056177;28;20033;-68
2021/06/06 08:18:40;;;;;;;10.20;6.03;;;21.50;57.70;;;;;;5055039;28;20158;-69
2021/06/06 08:21:12;;;;;;;8.93;5.55;;;21.50;57.60;;;;;;5054925;28;20562;-69
2021/06/06 08:23:39;;;;;;;7.75;5.35;;;21.50;57.50;;;;;;5055169;28;20040;-69
2021/06/06 08:26:05;;;;;;;9.20;5.78;;;21.50;57.50;;;;;;5056218;28;20021;-69
2021/06/06 08:28:32;;;;;;;9.35;5.88;;;21.50;57.40;;;;;;5056708;28;20028;-70
2021/06/06 08:31:04;;;;;;;9.27;5.63;;;21.50;57.50;;;;;;5063183;28;20032;-69
2021/06/06 08:33:32;;;;;;;10.40;5.85;;;21.50;57.40;;;;;;5059659;28;20047;-69
2021/06/06 08:36:02;;;;;;;8.70;5.50;;;21.50;57.40;;;;;;5060489;28;20104;-69
2021/06/06 08:38:30;;;;;;;9.45;5.88;;;21.50;57.30;;;;;;5058825;28;20270;-69
2021/06/06 08:41:18;;;;;;;8.55;5.63;;;21.50;57.30;;;;;;5057964;28;20099;-70
2021/06/06 08:44:15;;;;;;;9.88;5.47;;;21.50;57.40;;;;;;5056143;28;20060;-69
2021/06/06 08:46:50;;;;;;;9.32;5.53;;;21.50;57.30;;;;;;5056301;28;20032;-69
2021/06/06 08:49:16;;;;;;;8.40;5.63;;;21.50;57.30;;;;;;5056541;28;20083;-69
2021/06/06 08:51:48;;;;;;;7.35;5.50;;;21.50;57.40;;;;;;5056191;28;20025;-69
2021/06/06 08:54:34;;;;;;;8.50;5.38;;;21.50;57.40;;;;;;5056070;28;20068;-68
2021/06/06 08:57:22;;;;;;;9.50;5.38;;;21.50;57.20;;;;;;5056008;28;20017;-69
2021/06/06 08:59:56;;;;;;;8.80;5.18;;;21.50;57.30;;;;;;5056441;28;20051;-70
2021/06/06 09:02:40;;;;;;;9.88;5.68;;;21.50;57.30;;;;;;5056105;28;20082;-69
2021/06/06 09:05:09;;;;;;;9.13;5.65;;;21.50;57.20;;;;;;5058215;28;20076;-69
2021/06/06 09:07:42;;;;;;;9.88;5.22;;;21.50;57.20;;;;;;5065630;28;20025;-69
2021/06/06 09:10:20;;;;;;;8.18;5.40;;;21.50;57.10;;;;;;5060119;28;20017;-68
2021/06/06 09:12:46;;;;;;;8.70;5.60;;;21.50;57.10;;;;;;5056427;28;20052;-69
2021/06/06 09:15:15;;;;;;;8.20;5.57;;;21.60;57.10;;;;;;5056362;28;20031;-68
2021/06/06 09:17:49;;;;;;;8.80;5.50;;;21.60;57.10;;;;;;5056723;28;20444;-68
2021/06/06 09:20:39;;;;;;;7.80;5.68;;;21.60;57.10;;;;;;5054527;28;20029;-69
2021/06/06 09:23:19;;;;;;;8.50;5.40;;;21.60;57.10;;;;;;5055531;28;20033;-68
2021/06/06 09:25:58;;;;;;;9.20;5.07;;;21.60;57.10;;;;;;5055265;28;20025;-68
2021/06/06 09:28:26;;;;;;;9.10;5.55;;;21.60;57.10;;;;;;5055785;28;20075;-68
2021/06/06 09:31:11;;;;;;;8.27;5.63;;;21.60;57.00;;;;;;5056001;28;20139;-69
2021/06/06 09:33:43;;;;;;;8.35;5.30;;;21.60;57.00;;;;;;5055389;28;20036;-68
2021/06/06 09:36:35;;;;;;;8.68;5.78;;;21.60;57.00;;;;;;5055249;28;20028;-69
2021/06/06 09:39:01;;;;;;;8.10;5.53;;;21.60;56.90;;;;;;5055263;28;20028;-68
2021/06/06 09:41:31;;;;;;;7.78;5.35;;;21.60;57.00;;;;;;5054912;28;20033;-68
2021/06/06 09:44:05;;;;;;;8.93;5.22;;;21.60;57.00;;;;;;5054906;28;20045;-69
2021/06/06 09:46:40;;;;;;;9.25;4.90;;;21.60;57.00;;;;;;5053737;28;20027;-68
2021/06/06 09:49:31;;;;;;;8.00;5.32;;;21.70;56.90;;;;;;5054821;28;20021;-68
2021/06/06 09:52:10;;;;;;;8.90;5.00;;;21.70;57.10;;;;;;5046004;28;20059;-69
2021/06/06 09:54:37;;;;;;;8.43;4.68;;;21.70;56.90;;;;;;5054635;28;20425;-69
2021/06/06 09:57:37;;;;;;;7.60;5.07;;;21.70;56.90;;;;;;5054881;28;20103;-68
2021/06/06 10:00:22;;;;;;;9.10;4.85;;;21.70;56.90;;;;;;5048836;28;20040;-68
2021/06/06 10:03:05;;;;;;;8.70;5.55;;;21.70;56.90;;;;;;5054432;28;20040;-69
2021/06/06 10:05:32;;;;;;;7.72;4.70;;;21.70;56.90;;;;;;5054641;28;20028;-69
2021/06/06 10:08:24;;;;;;;8.05;4.70;;;21.60;56.90;;;;;;5054288;28;20496;-68
2021/06/06 10:11:06;;;;;;;7.65;5.25;;;21.70;56.90;;;;;;5054102;28;20108;-69
2021/06/06 10:13:33;;;;;;;6.78;4.75;;;21.70;57.00;;;;;;5054248;28;20060;-69
2021/06/06 10:16:02;;;;;;;8.98;5.35;;;21.60;57.00;;;;;;5054852;28;20473;-68
2021/06/06 10:18:39;;;;;;;8.45;5.20;;;21.70;57.00;;;;;;5054411;28;20025;-68
2021/06/06 10:21:11;;;;;;;8.13;5.65;;;21.60;56.90;;;;;;5053817;28;20534;-68
2021/06/06 10:23:56;;;;;;;7.53;5.35;;;21.70;57.00;;;;;;5053914;28;20156;-69
2021/06/06 10:26:36;;;;;;;7.93;5.32;;;21.60;56.90;;;;;;5053484;28;20029;-69
2021/06/06 10:29:43;;;;;;;8.50;5.00;;;21.70;56.90;;;;;;5053606;28;20051;-69
2021/06/06 10:32:17;;;;;;;9.35;4.93;;;21.70;56.90;;;;;;5030535;28;20041;-68
2021/06/06 10:34:46;;;;;;;9.25;5.32;;;21.60;56.90;;;;;;5053668;28;20094;-69
2021/06/06 10:37:13;;;;;;;8.13;5.07;;;21.60;56.90;;;;;;5053578;28;20021;-68
2021/06/06 10:39:42;;;;;;;7.10;4.70;;;21.70;56.90;;;;;;5052851;28;20040;-68
2021/06/06 10:42:19;;;;;;;7.03;4.75;;;21.70;56.90;;;;;;5053634;28;20029;-68
2021/06/06 10:45:07;;;;;;;7.60;4.93;;;21.70;57.00;;;;;;5057069;28;20044;-69
2021/06/06 10:47:56;;;;;;;8.10;5.28;;;21.70;56.80;;;;;;5056887;28;20029;-69
2021/06/06 10:50:34;;;;;;;7.70;4.78;;;21.70;56.80;;;;;;5053715;28;20049;-69
2021/06/06 10:53:25;;;;;;;7.65;5.13;;;21.70;56.80;;;;;;5053937;28;20064;-70
2021/06/06 10:56:30;;;;;;;6.63;4.43;;;21.70;56.90;;;;;;5053653;28;20039;-68
2021/06/06 10:59:08;;;;;;;7.53;4.88;;;21.70;56.80;;;;;;5053582;28;20476;-69
2021/06/06 11:01:42;;;;;;;8.50;5.32;;;21.70;56.90;;;;;;5053238;28;20037;-68
2021/06/06 11:04:22;;;;;;;7.78;4.85;;;21.70;56.90;;;;;;5053278;28;20070;-68
2021/06/06 11:07:05;;;;;;;7.93;5.00;;;21.70;56.90;;;;;;5053348;28;20029;-68
2021/06/06 11:09:34;;;;;;;7.40;4.88;;;21.70;56.90;;;;;;5052960;28;20493;-68
2021/06/06 11:12:04;;;;;;;8.40;5.32;;;21.70;56.90;;;;;;5053145;28;20032;-69
2021/06/06 11:14:37;;;;;;;7.03;4.97;;;21.70;56.90;;;;;;5053409;28;20028;-68
2021/06/06 11:17:10;;;;;;;6.95;4.82;;;21.70;56.90;;;;;;5052846;28;20528;-68
2021/06/06 11:19:35;;;;;;;7.40;4.70;;;21.70;56.90;;;;;;5052797;28;20166;-69
2021/06/06 11:22:07;;;;;;;7.63;5.00;;;21.70;56.90;;;;;;5052816;28;20527;-68
2021/06/06 11:24:32;;;;;;;7.40;4.72;;;21.70;56.90;;;;;;5052962;28;20029;-68
2021/06/06 11:27:03;;;;;;;8.02;4.78;;;21.70;56.90;;;;;;5052740;28;20369;-68
2021/06/06 11:29:55;;;;;;;7.53;4.75;;;21.70;56.90;;;;;;5052570;28;20021;-67
2021/06/06 11:32:36;;;;;;;7.47;4.57;;;21.70;56.80;;;;;;5051903;28;20021;-68
2021/06/06 11:35:29;;;;;;;7.10;4.28;;;21.70;56.90;;;;;;5052382;28;20542;-68
2021/06/06 11:38:18;;;;;;;7.15;4.40;;;21.70;56.90;;;;;;5051310;28;20033;-69
2021/06/06 11:40:50;;;;;;;7.85;5.30;;;21.80;56.90;;;;;;5052610;28;20397;-67
2021/06/06 11:43:32;;;;;;;6.75;4.57;;;21.70;56.90;;;;;;5052424;28;20098;-66
2021/06/06 11:46:18;;;;;;;8.07;5.20;;;21.70;56.90;;;;;;5052528;28;20053;-67
2021/06/06 11:49:01;;;;;;;8.68;5.38;;;21.80;56.90;;;;;;5052487;28;20032;-67
2021/06/06 11:51:33;;;;;;;7.85;5.00;;;21.80;56.80;;;;;;5056740;28;20021;-68
2021/06/06 11:54:04;;;;;;;7.80;5.05;;;21.80;56.80;;;;;;5056882;28;20025;-68
2021/06/06 11:56:39;;;;;;;7.57;4.68;;;21.80;56.80;;;;;;5056802;28;20025;-67
2021/06/06 11:59:14;;;;;;;7.32;4.60;;;21.80;56.80;;;;;;5057090;28;20032;-67
2021/06/06 12:01:59;;;;;;;8.20;5.10;;;21.80;56.80;;;;;;5056466;28;20037;-67
2021/06/06 12:04:34;;;;;;;7.97;5.57;;;21.80;56.80;;;;;;5056662;28;20032;-67
2021/06/06 12:07:10;;;;;;;8.05;5.07;;;21.80;56.80;;;;;;5056748;28;20021;-67
2021/06/06 12:09:39;;;;;;;7.72;5.00;;;21.80;56.80;;;;;;5056927;28;20021;-68
2021/06/06 12:12:26;;;;;;;7.38;4.80;;;21.90;56.80;;;;;;5057301;28;20103;-67
2021/06/06 12:15:11;;;;;;;8.60;5.13;;;21.90;56.70;;;;;;5065963;28;20369;-68
2021/06/06 12:17:37;;;;;;;8.10;5.00;;;21.90;56.80;;;;;;5061140;28;20346;-66
2021/06/06 12:20:13;;;;;;;8.07;5.07;;;21.90;56.70;;;;;;5056933;28;20090;-67
2021/06/06 12:22:41;;;;;;;7.22;4.85;;;21.90;56.80;;;;;;5056440;28;20555;-67
2021/06/06 12:25:28;;;;;;;8.73;5.00;;;21.90;56.80;;;;;;5056466;28;20024;-67
2021/06/06 12:28:08;;;;;;;8.48;5.07;;;21.90;56.80;;;;;;5056377;28;20037;-68
2021/06/06 12:30:46;;;;;;;8.35;4.57;;;21.80;56.80;;;;;;5056429;28;20108;-67
2021/06/06 12:33:11;;;;;;;7.65;4.70;;;21.80;56.90;;;;;;5056202;28;20477;-67
2021/06/06 12:35:46;;;;;;;8.80;5.10;;;21.90;56.80;;;;;;5056968;28;20039;-67
2021/06/06 12:38:12;;;;;;;8.60;5.25;;;21.80;56.80;;;;;;5056979;28;20025;-66
2021/06/06 12:40:39;;;;;;;7.45;4.53;;;21.90;56.80;;;;;;5056588;28;20147;-67
2021/06/06 12:43:06;;;;;;;7.45;4.90;;;21.90;56.70;;;;;;5055718;28;20052;-67
2021/06/06 12:45:33;;;;;;;7.35;4.45;;;21.90;56.70;;;;;;5056064;28;20036;-67
2021/06/06 12:48:12;;;;;;;7.20;4.70;;;21.90;56.70;;;;;;5055762;28;20384;-67
2021/06/06 12:50:41;;;;;;;7.50;4.63;;;21.90;56.60;;;;;;5056417;28;20044;-67
2021/06/06 12:53:32;;;;;;;7.10;4.85;;;22.00;56.70;;;;;;5058446;28;20479;-67
2021/06/06 12:56:28;;;;;;;8.00;4.40;;;22.00;56.70;;;;;;5063626;28;20020;-67
2021/06/06 12:59:27;;;;;;;8.43;5.28;;;21.90;56.70;;;;;;5059948;28;20065;-68
2021/06/06 13:02:11;;;;;;;6.97;4.35;;;21.90;56.80;;;;;;5047465;28;20056;-68
2021/06/06 13:04:37;;;;;;;7.32;4.55;;;21.90;56.70;;;;;;5061811;28;20032;-68
2021/06/06 13:07:16;;;;;;;7.30;4.85;;;21.90;56.80;;;;;;5059986;28;20116;-68